Time;durP1;ratioP1;P1;durP2;ratioP2;P2;SDS_P1;SDS_P2;PMS_P1;PMS_P2;Temp;Humidity;BMP_temperature;BMP_pressure;BME280_temperature;BME280_humidity;BME280_pressure;Samples;Min_cycle;Max_cycle;Signal;HPM_P1;HPM_P2
2022/05/23 00:01:49;;;;;;;1.95;1.77;;;18.40;99.90;;;;;;5055328;28;20194;-59
2022/05/23 00:04:15;;;;;;;1.67;1.58;;;18.50;99.90;;;;;;5055247;28;20579;-59
2022/05/23 00:06:42;;;;;;;2.17;1.98;;;18.40;99.90;;;;;;5055171;28;20175;-58
2022/05/23 00:09:09;;;;;;;2.90;1.85;;;18.40;99.90;;;;;;5037062;28;20185;-61
2022/05/23 00:11:35;;;;;;;2.25;2.00;;;18.40;99.90;;;;;;5054881;28;20290;-58
2022/05/23 00:14:01;;;;;;;3.97;2.20;;;18.30;99.90;;;;;;5054913;28;20607;-58
2022/05/23 00:16:29;;;;;;;2.67;2.47;;;18.20;99.90;;;;;;5055044;28;20641;-58
2022/05/23 00:18:55;;;;;;;2.35;1.98;;;18.20;99.90;;;;;;5054876;28;20178;-58
2022/05/23 00:21:20;;;;;;;3.38;2.15;;;18.10;99.90;;;;;;5054812;28;20578;-59
2022/05/23 00:23:46;;;;;;;2.25;2.03;;;18.10;99.90;;;;;;5054338;28;20194;-58
2022/05/23 00:26:21;;;;;;;4.07;2.60;;;18.10;99.90;;;;;;5053927;28;20175;-59
2022/05/23 00:28:48;;;;;;;2.35;2.15;;;18.00;99.90;;;;;;5054553;28;20201;-59
2022/05/23 00:31:14;;;;;;;3.63;2.40;;;18.00;99.90;;;;;;5036776;28;20211;-58
2022/05/23 00:36:30;;;;;;;2.42;2.22;;;17.90;99.90;;;;;;5039677;28;20237;-58
2022/05/23 00:38:55;;;;;;;4.28;2.53;;;17.80;99.90;;;;;;5054542;28;20172;-59
2022/05/23 00:44:23;;;;;;;4.32;2.40;;;17.80;99.90;;;;;;5054651;28;20185;-58
2022/05/23 00:46:59;;;;;;;2.55;2.25;;;17.80;99.90;;;;;;5054366;28;20195;-58
2022/05/23 00:49:34;;;;;;;2.58;2.10;;;17.80;99.90;;;;;;5054161;28;20598;-58
2022/05/23 00:52:04;;;;;;;2.50;2.30;;;17.80;99.90;;;;;;5054427;28;20652;-58
2022/05/23 00:54:35;;;;;;;2.92;2.55;;;17.80;99.90;;;;;;5036720;28;20258;-58
2022/05/23 00:57:01;;;;;;;3.28;2.50;;;17.90;99.90;;;;;;5054207;28;20164;-58
2022/05/23 00:59:30;;;;;;;3.08;2.53;;;17.90;99.90;;;;;;5053964;28;20172;-58
2022/05/23 01:01:57;;;;;;;2.42;2.22;;;17.90;99.90;;;;;;5054292;28;20552;-60
2022/05/23 01:04:23;;;;;;;2.55;1.92;;;17.90;99.90;;;;;;5054155;28;20171;-59
2022/05/23 01:06:49;;;;;;;2.97;2.40;;;17.90;99.90;;;;;;5053880;28;20222;-58
2022/05/23 01:09:15;;;;;;;5.13;2.30;;;17.90;99.90;;;;;;5053807;28;20176;-58
2022/05/23 01:11:41;;;;;;;3.90;2.28;;;18.00;99.90;;;;;;5053818;28;20214;-58
2022/05/23 01:14:07;;;;;;;2.83;2.30;;;18.00;99.90;;;;;;5053792;28;20183;-58
2022/05/23 01:16:32;;;;;;;2.40;2.08;;;18.00;99.90;;;;;;5053667;28;20183;-59
2022/05/23 01:18:58;;;;;;;2.58;2.25;;;18.00;99.90;;;;;;5053928;28;20652;-58
2022/05/23 01:22:13;;;;;;;2.78;2.30;;;18.10;99.90;;;;;;5053585;28;20252;-58
2022/05/23 01:24:50;;;;;;;2.45;2.08;;;18.10;99.90;;;;;;5035484;28;20190;-58
2022/05/23 01:27:17;;;;;;;2.38;2.17;;;18.10;99.90;;;;;;5053899;28;20171;-58
2022/05/23 01:29:44;;;;;;;2.88;2.47;;;18.10;99.90;;;;;;5053396;28;20659;-58
2022/05/23 01:32:10;;;;;;;2.55;2.05;;;18.10;99.90;;;;;;5035903;28;20373;-58
2022/05/23 01:34:35;;;;;;;2.47;2.15;;;18.10;99.90;;;;;;5053358;28;20171;-59
2022/05/23 01:37:01;;;;;;;2.70;2.20;;;18.20;99.90;;;;;;5035239;28;20171;-58
2022/05/23 01:39:27;;;;;;;2.58;2.13;;;18.20;99.90;;;;;;5053294;28;20179;-58
2022/05/23 01:41:52;;;;;;;3.00;2.38;;;18.30;99.90;;;;;;5053539;28;20172;-58
2022/05/23 01:44:18;;;;;;;2.55;2.17;;;18.30;99.90;;;;;;5019044;28;20179;-58
2022/05/23 01:46:44;;;;;;;3.53;2.20;;;18.30;99.90;;;;;;5053242;28;20183;-60
2022/05/23 01:49:10;;;;;;;3.30;2.33;;;18.30;99.90;;;;;;5035401;28;20270;-59
2022/05/23 01:51:36;;;;;;;3.97;2.80;;;18.30;99.90;;;;;;5053154;28;20214;-58
2022/05/23 01:54:01;;;;;;;2.55;2.25;;;18.20;99.90;;;;;;5053123;28;20214;-58
2022/05/23 01:56:27;;;;;;;2.47;2.03;;;18.20;99.90;;;;;;5053331;28;20187;-58
2022/05/23 02:01:37;;;;;;;2.97;2.67;;;18.10;99.90;;;;;;5053271;28;20210;-59
2022/05/23 02:04:03;;;;;;;4.13;2.90;;;18.10;99.90;;;;;;5053087;28;20553;-58
2022/05/23 02:06:28;;;;;;;2.60;2.40;;;18.10;99.90;;;;;;5053281;28;20183;-59
2022/05/23 02:08:54;;;;;;;2.75;2.50;;;18.00;99.90;;;;;;5052985;28;20175;-58
2022/05/23 02:11:20;;;;;;;2.40;2.20;;;18.00;99.90;;;;;;5052895;28;20210;-58
2022/05/23 02:13:46;;;;;;;2.95;2.58;;;17.90;99.90;;;;;;5053233;28;20183;-58
2022/05/23 02:16:12;;;;;;;3.95;2.90;;;17.90;99.90;;;;;;5053026;28;20501;-58
2022/05/23 02:18:38;;;;;;;3.53;3.10;;;17.90;99.90;;;;;;5018613;28;20175;-58
2022/05/23 02:21:04;;;;;;;3.80;2.75;;;18.00;99.90;;;;;;5035196;28;20183;-58
2022/05/23 02:23:30;;;;;;;4.97;2.88;;;18.00;99.90;;;;;;5052836;28;20171;-58
2022/05/23 02:25:55;;;;;;;3.80;3.13;;;17.90;99.90;;;;;;5035622;28;20194;-58
2022/05/23 02:28:22;;;;;;;4.65;2.75;;;18.00;99.90;;;;;;5018648;28;20180;-59
2022/05/23 02:30:48;;;;;;;4.22;2.70;;;18.00;99.90;;;;;;5052734;28;20207;-58
2022/05/23 02:33:14;;;;;;;4.38;2.78;;;18.00;99.90;;;;;;5052732;28;20227;-58
2022/05/23 02:35:41;;;;;;;3.53;3.05;;;18.00;99.90;;;;;;5052781;28;20171;-58
2022/05/23 02:38:06;;;;;;;5.30;3.42;;;17.90;99.90;;;;;;5052948;28;20266;-58
2022/05/23 02:40:32;;;;;;;4.40;2.92;;;17.90;99.90;;;;;;5035386;28;20258;-60
2022/05/23 02:42:58;;;;;;;4.07;3.08;;;17.90;99.90;;;;;;5034965;28;20186;-58
2022/05/23 02:45:24;;;;;;;4.05;3.20;;;17.90;99.90;;;;;;5052723;28;20179;-59
2022/05/23 02:47:49;;;;;;;3.28;2.63;;;17.90;99.90;;;;;;5053628;28;20288;-58
2022/05/23 02:50:16;;;;;;;4.05;3.47;;;17.90;99.90;;;;;;5056261;28;20214;-59
2022/05/23 02:52:43;;;;;;;4.88;3.47;;;17.90;99.90;;;;;;5056658;28;20529;-58
2022/05/23 02:55:09;;;;;;;4.30;3.22;;;17.70;99.90;;;;;;5056467;28;20192;-59
2022/05/23 02:57:35;;;;;;;4.68;3.28;;;17.60;99.90;;;;;;5056524;28;20163;-58
2022/05/23 03:00:01;;;;;;;3.35;2.90;;;17.60;99.90;;;;;;5056174;28;20186;-57
2022/05/23 03:05:11;;;;;;;4.45;3.35;;;17.50;99.90;;;;;;5056498;28;20183;-58
2022/05/23 03:07:37;;;;;;;4.88;3.72;;;17.50;99.90;;;;;;5056367;28;20176;-58
2022/05/23 03:10:04;;;;;;;4.30;3.47;;;17.40;99.90;;;;;;5056015;28;20207;-58
2022/05/23 03:12:30;;;;;;;3.67;3.35;;;17.40;99.90;;;;;;5056050;28;20167;-59
2022/05/23 03:14:56;;;;;;;3.97;3.17;;;17.40;99.90;;;;;;5056061;28;20598;-58
2022/05/23 03:17:21;;;;;;;4.80;3.20;;;17.40;99.90;;;;;;5056270;28;20209;-59
2022/05/23 03:19:47;;;;;;;4.22;3.65;;;17.40;99.90;;;;;;5038305;28;20183;-58
2022/05/23 03:27:44;;;;;;;4.13;3.72;;;17.30;99.90;;;;;;5041013;28;20198;-60
2022/05/23 03:30:11;;;;;;;4.43;3.70;;;17.30;99.90;;;;;;5037924;28;20211;-58
2022/05/23 03:32:39;;;;;;;4.03;3.63;;;17.20;99.90;;;;;;5055756;28;20184;-58
2022/05/23 03:35:07;;;;;;;4.75;4.03;;;17.10;99.90;;;;;;5037909;28;20205;-59
2022/05/23 03:37:33;;;;;;;4.88;3.80;;;17.10;99.90;;;;;;5055578;28;20187;-59
2022/05/23 03:39:58;;;;;;;4.70;3.50;;;17.10;99.90;;;;;;5055603;28;20187;-58
2022/05/23 03:42:24;;;;;;;4.68;3.90;;;17.10;99.90;;;;;;5037686;28;20179;-59
2022/05/23 03:44:49;;;;;;;4.30;3.60;;;17.10;99.90;;;;;;5055616;28;20183;-58
2022/05/23 03:47:15;;;;;;;4.20;3.78;;;17.10;99.90;;;;;;5055637;28;20663;-58
2022/05/23 03:49:41;;;;;;;4.05;3.65;;;17.00;99.90;;;;;;5037538;28;20176;-58
2022/05/23 03:52:07;;;;;;;4.43;3.67;;;17.00;99.90;;;;;;5055438;28;20190;-58
2022/05/23 03:54:33;;;;;;;4.22;3.35;;;17.10;99.90;;;;;;5055285;28;20175;-59
2022/05/23 03:57:00;;;;;;;4.22;3.83;;;17.00;99.90;;;;;;5037585;28;20565;-59
2022/05/23 03:59:27;;;;;;;4.32;3.88;;;17.00;99.90;;;;;;5037286;28;20176;-58
2022/05/23 04:01:56;;;;;;;4.45;3.72;;;17.10;99.90;;;;;;5055315;28;20194;-58
2022/05/23 04:04:23;;;;;;;5.00;4.60;;;17.10;99.90;;;;;;5055141;28;20173;-58
2022/05/23 04:06:48;;;;;;;4.57;3.90;;;17.00;99.90;;;;;;5037353;28;20179;-58
2022/05/23 04:09:14;;;;;;;5.38;3.90;;;16.90;99.90;;;;;;5055279;28;20590;-58
2022/05/23 04:11:40;;;;;;;4.97;4.15;;;16.90;99.90;;;;;;5054874;28;20210;-58
2022/05/23 04:14:05;;;;;;;4.60;4.03;;;16.80;99.90;;;;;;5055023;28;20253;-58
2022/05/23 04:16:31;;;;;;;5.63;4.15;;;16.80;99.90;;;;;;5037283;28;20172;-58
2022/05/23 04:18:57;;;;;;;4.53;3.78;;;16.90;99.90;;;;;;5037477;28;20179;-59
2022/05/23 04:21:24;;;;;;;4.47;3.95;;;16.90;99.90;;;;;;5054888;28;20171;-58
2022/05/23 04:23:50;;;;;;;4.20;3.80;;;17.00;99.90;;;;;;5054752;28;20180;-58
2022/05/23 04:26:16;;;;;;;4.40;3.60;;;17.00;99.90;;;;;;5054634;28;20186;-58
2022/05/23 04:28:41;;;;;;;5.90;4.20;;;17.10;99.90;;;;;;5054911;28;20175;-58
2022/05/23 04:31:08;;;;;;;5.38;3.95;;;17.10;99.90;;;;;;5054487;28;20329;-58
2022/05/23 04:36:18;;;;;;;5.30;3.83;;;17.20;99.90;;;;;;5054981;28;20182;-58
2022/05/23 04:38:44;;;;;;;6.57;3.95;;;17.30;99.90;;;;;;5054460;28;20536;-58
2022/05/23 04:41:10;;;;;;;4.63;3.45;;;17.20;99.90;;;;;;5054377;28;20180;-59
2022/05/23 04:43:36;;;;;;;4.53;3.90;;;17.30;99.90;;;;;;5054503;28;20268;-58
2022/05/23 04:46:01;;;;;;;4.45;3.83;;;17.30;99.90;;;;;;5054454;28;20655;-58
2022/05/23 04:51:11;;;;;;;4.93;3.75;;;17.40;99.90;;;;;;5054261;28;20336;-58
2022/05/23 04:53:37;;;;;;;5.38;3.75;;;17.40;99.90;;;;;;5054471;28;20699;-58
2022/05/23 04:56:03;;;;;;;5.43;3.88;;;17.40;99.90;;;;;;5054497;28;20564;-58
2022/05/23 04:58:29;;;;;;;4.50;4.00;;;17.40;99.90;;;;;;5054253;28;20536;-58
2022/05/23 05:00:56;;;;;;;4.20;3.80;;;17.20;99.90;;;;;;5054187;28;20198;-58
2022/05/23 05:03:22;;;;;;;4.93;4.43;;;17.30;99.90;;;;;;5036320;28;20187;-59
2022/05/23 05:05:48;;;;;;;4.35;3.67;;;17.30;99.90;;;;;;5053895;28;20179;-58
2022/05/23 05:08:14;;;;;;;6.70;4.07;;;17.30;99.90;;;;;;5054081;28;20175;-58
2022/05/23 05:10:40;;;;;;;5.45;4.38;;;17.40;99.90;;;;;;5052997;28;20221;-58
2022/05/23 05:13:06;;;;;;;5.57;4.00;;;17.40;99.90;;;;;;5053309;28;20175;-58
2022/05/23 05:15:33;;;;;;;6.25;4.18;;;17.40;99.90;;;;;;5052916;28;20171;-61
2022/05/23 05:17:59;;;;;;;5.50;4.22;;;17.50;99.90;;;;;;5052870;28;20171;-58
2022/05/23 05:20:25;;;;;;;5.72;4.47;;;17.50;99.90;;;;;;5034853;28;20361;-58
2022/05/23 05:22:51;;;;;;;6.15;4.22;;;17.50;99.90;;;;;;5052941;28;20590;-58
2022/05/23 05:25:18;;;;;;;4.97;4.47;;;17.60;99.90;;;;;;5052815;28;20226;-58
2022/05/23 05:27:44;;;;;;;4.95;3.83;;;17.60;99.90;;;;;;5052883;28;20171;-59
2022/05/23 05:30:13;;;;;;;4.80;4.30;;;17.60;99.90;;;;;;5052455;28;20207;-58
2022/05/23 05:32:42;;;;;;;4.97;4.25;;;17.70;99.90;;;;;;5052483;28;20178;-58
2022/05/23 05:35:12;;;;;;;4.65;3.90;;;17.70;99.90;;;;;;5052512;28;20278;-58
2022/05/23 05:37:45;;;;;;;4.78;4.15;;;17.70;99.90;;;;;;5052979;28;20167;-58
2022/05/23 05:40:14;;;;;;;4.93;4.30;;;17.80;99.90;;;;;;5052567;28;20712;-58
2022/05/23 05:42:44;;;;;;;5.72;4.47;;;17.70;99.90;;;;;;5052418;28;20198;-58
2022/05/23 05:45:17;;;;;;;6.20;4.32;;;17.70;99.90;;;;;;5052227;28;20256;-59
2022/05/23 05:47:47;;;;;;;5.78;4.20;;;17.70;99.90;;;;;;5052486;28;20172;-59
2022/05/23 05:50:24;;;;;;;5.28;4.53;;;17.70;99.90;;;;;;5052494;28;20290;-58
2022/05/23 05:52:54;;;;;;;6.32;4.75;;;17.70;99.90;;;;;;5034624;28;20662;-58
2022/05/23 05:55:19;;;;;;;6.18;4.53;;;17.80;99.90;;;;;;5052357;28;20167;-58
2022/05/23 05:57:45;;;;;;;6.28;4.75;;;17.90;99.90;;;;;;5052296;28;20259;-58
2022/05/23 06:00:12;;;;;;;6.90;4.63;;;17.90;99.90;;;;;;5018317;28;20194;-58
2022/05/23 06:02:37;;;;;;;5.60;4.88;;;17.90;99.90;;;;;;5052085;28;20276;-58
2022/05/23 06:05:03;;;;;;;6.07;4.50;;;17.80;99.90;;;;;;5034413;28;20601;-58
2022/05/23 06:13:00;;;;;;;6.93;4.35;;;17.80;99.90;;;;;;5052650;28;20218;-58
2022/05/23 06:15:25;;;;;;;7.32;5.18;;;17.90;99.90;;;;;;5034255;28;20179;-59
2022/05/23 06:17:54;;;;;;;5.80;4.18;;;17.90;99.90;;;;;;5052120;28;20179;-58
2022/05/23 06:20:20;;;;;;;5.60;4.57;;;17.90;99.90;;;;;;5052563;28;20186;-60
2022/05/23 06:22:46;;;;;;;5.10;4.03;;;18.00;99.90;;;;;;5054457;28;20179;-58
2022/05/23 06:25:15;;;;;;;6.30;4.30;;;18.10;99.90;;;;;;5056061;28;20536;-59
2022/05/23 06:27:41;;;;;;;5.55;4.78;;;18.10;99.90;;;;;;5056274;28;20256;-58
2022/05/23 06:30:09;;;;;;;5.32;4.47;;;18.20;99.90;;;;;;5056160;28;20230;-58
2022/05/23 06:32:35;;;;;;;6.75;4.40;;;18.20;99.90;;;;;;5055976;28;20663;-58
2022/05/23 06:35:01;;;;;;;4.55;3.88;;;18.20;99.90;;;;;;5056043;28;20175;-58
2022/05/23 06:37:27;;;;;;;7.18;4.75;;;18.20;99.90;;;;;;5055876;28;20183;-58
2022/05/23 06:39:53;;;;;;;6.25;4.63;;;18.20;99.90;;;;;;5038042;28;20632;-58
2022/05/23 06:42:19;;;;;;;4.22;3.58;;;18.20;99.90;;;;;;5055833;28;20202;-58
2022/05/23 06:44:44;;;;;;;7.15;4.82;;;18.20;99.90;;;;;;5055778;28;20271;-60
2022/05/23 06:47:10;;;;;;;5.45;4.53;;;18.10;99.90;;;;;;5055892;28;20270;-59
2022/05/23 06:49:36;;;;;;;5.20;4.03;;;18.10;99.90;;;;;;5055764;28;20229;-59
2022/05/23 06:52:01;;;;;;;6.00;4.07;;;18.20;99.90;;;;;;5055511;28;20295;-58
2022/05/23 06:54:27;;;;;;;5.57;4.55;;;18.30;99.90;;;;;;5021077;28;20263;-59
2022/05/23 06:56:53;;;;;;;4.93;4.45;;;18.20;99.90;;;;;;5055732;28;20176;-58
2022/05/23 06:59:19;;;;;;;5.85;4.70;;;18.30;99.90;;;;;;5037899;28;20305;-58
2022/05/23 07:01:46;;;;;;;5.55;4.40;;;18.40;99.90;;;;;;5054363;28;20293;-59
2022/05/23 07:04:12;;;;;;;5.47;4.45;;;18.50;99.90;;;;;;5037676;28;20194;-58
2022/05/23 07:12:19;;;;;;;6.25;4.47;;;18.60;99.90;;;;;;5055449;28;20186;-58
2022/05/23 07:12:27;;;;;;;4.82;4.03;;;18.60;99.90;;;;;;5040830;28;20183;-58
2022/05/23 07:14:56;;;;;;;6.97;5.10;;;18.60;99.90;;;;;;5055239;28;20248;-58
2022/05/23 07:17:23;;;;;;;5.38;3.97;;;18.70;99.90;;;;;;5038034;28;20172;-59
2022/05/23 07:19:49;;;;;;;5.18;3.85;;;18.70;99.90;;;;;;5055250;28;20293;-58
2022/05/23 07:22:15;;;;;;;6.60;4.60;;;18.70;99.90;;;;;;5055235;28;20282;-58
2022/05/23 07:24:41;;;;;;;5.75;4.13;;;18.70;99.90;;;;;;5037251;28;20658;-58
2022/05/23 07:27:07;;;;;;;7.07;4.63;;;18.70;99.90;;;;;;5055380;28;20252;-58
2022/05/23 07:29:32;;;;;;;6.68;4.18;;;18.80;99.90;;;;;;5054805;28;20179;-59
2022/05/23 07:31:58;;;;;;;5.82;4.30;;;18.80;99.90;;;;;;5055063;28;20215;-59
2022/05/23 07:34:24;;;;;;;5.70;4.05;;;18.90;99.90;;;;;;5054367;28;20168;-58
2022/05/23 07:36:50;;;;;;;7.43;5.07;;;18.80;99.90;;;;;;5054928;28;20202;-58
2022/05/23 07:39:16;;;;;;;5.07;3.80;;;18.80;99.90;;;;;;5037008;28;20213;-58
2022/05/23 07:41:43;;;;;;;4.82;4.25;;;18.80;99.90;;;;;;5036842;28;20648;-58
2022/05/23 07:44:10;;;;;;;5.00;3.78;;;18.80;99.90;;;;;;5054615;28;20174;-59
2022/05/23 07:46:37;;;;;;;5.53;4.45;;;18.90;99.90;;;;;;5054799;28;20183;-58
2022/05/23 07:49:04;;;;;;;6.22;4.00;;;18.90;99.90;;;;;;5051260;28;20179;-58
2022/05/23 07:51:32;;;;;;;4.32;3.60;;;19.10;99.90;;;;;;5054317;28;20210;-58
2022/05/23 08:02:13;;;;;;;5.38;3.90;;;19.60;99.90;;;;;;5054772;28;20610;-58
2022/05/23 08:04:38;;;;;;;4.70;3.00;;;19.50;99.90;;;;;;5054109;28;20175;-58
2022/05/23 08:07:10;;;;;;;4.18;3.25;;;19.60;99.90;;;;;;5054128;28;20626;-58
2022/05/23 08:09:36;;;;;;;3.45;3.10;;;19.60;99.90;;;;;;5054424;28;20164;-58
2022/05/23 08:12:04;;;;;;;3.78;3.08;;;19.70;99.90;;;;;;5019756;28;20211;-58
2022/05/23 08:14:30;;;;;;;5.28;3.60;;;19.90;99.90;;;;;;5054199;28;20183;-58
2022/05/23 08:16:57;;;;;;;4.05;3.03;;;20.00;99.90;;;;;;5053877;28;20179;-60
2022/05/23 08:19:23;;;;;;;3.75;2.70;;;20.10;99.90;;;;;;5053543;28;20603;-58
2022/05/23 08:21:53;;;;;;;3.40;2.60;;;20.40;99.90;;;;;;5053746;28;20357;-58
2022/05/23 08:24:19;;;;;;;2.72;2.45;;;20.70;99.90;;;;;;5054132;28;20170;-58
2022/05/23 08:26:44;;;;;;;3.45;2.38;;;20.90;99.90;;;;;;5053980;28;20258;-58
2022/05/23 08:29:10;;;;;;;4.78;2.60;;;21.10;99.90;;;;;;5036147;28;20263;-58
2022/05/23 08:31:37;;;;;;;2.67;2.47;;;21.20;99.90;;;;;;5053522;28;20218;-58
2022/05/23 08:34:03;;;;;;;3.03;2.58;;;21.40;99.90;;;;;;5035852;28;20187;-58
2022/05/23 08:36:30;;;;;;;2.53;2.30;;;21.50;99.90;;;;;;5053677;28;20190;-58
2022/05/23 08:38:56;;;;;;;3.85;2.47;;;21.50;99.90;;;;;;5053792;28;20250;-61
2022/05/23 08:41:35;;;;;;;3.25;2.40;;;21.70;99.90;;;;;;5053669;28;20262;-59
2022/05/23 08:44:06;;;;;;;2.67;2.38;;;21.90;99.90;;;;;;5053498;28;20175;-59
2022/05/23 08:46:46;;;;;;;3.22;2.13;;;22.30;99.90;;;;;;5052593;28;20175;-58
2022/05/23 08:49:32;;;;;;;2.17;1.98;;;22.30;99.90;;;;;;5053542;28;20639;-58
2022/05/23 08:52:19;;;;;;;2.83;2.08;;;22.40;99.90;;;;;;5053318;28;20226;-58
2022/05/23 08:54:54;;;;;;;2.53;2.10;;;22.80;99.90;;;;;;5053286;28;20172;-59
2022/05/23 08:57:28;;;;;;;2.45;1.90;;;23.10;99.90;;;;;;5053135;28;20525;-60
2022/05/23 08:59:57;;;;;;;2.83;2.25;;;23.00;99.90;;;;;;5053357;28;20240;-58
2022/05/23 09:02:37;;;;;;;3.15;2.53;;;23.40;99.90;;;;;;5053735;28;20640;-58
2022/05/23 09:05:09;;;;;;;3.05;2.38;;;23.70;99.90;;;;;;5053153;28;20189;-58
2022/05/23 09:07:48;;;;;;;2.92;2.10;;;23.70;99.90;;;;;;5130850;27;21164;-58
2022/05/23 09:10:38;;;;;;;1.92;1.73;;;23.10;99.90;;;;;;5130907;28;20181;-59
2022/05/23 09:13:08;;;;;;;4.45;2.10;;;23.40;99.90;;;;;;5131287;27;20164;-59
2022/05/23 09:15:34;;;;;;;2.28;1.75;;;23.70;99.90;;;;;;5131422;28;20180;-59
2022/05/23 09:18:05;;;;;;;2.72;1.88;;;23.70;99.90;;;;;;5131220;27;20184;-59
2022/05/23 09:20:44;;;;;;;1.83;1.60;;;23.50;99.90;;;;;;5130943;28;20645;-56
2022/05/23 09:23:29;;;;;;;2.05;1.40;;;23.30;99.90;;;;;;5130223;27;20529;-57
2022/05/23 09:25:56;;;;;;;2.00;1.60;;;23.20;99.90;;;;;;5131170;28;20239;-59
2022/05/23 09:28:27;;;;;;;2.70;2.35;;;23.20;99.90;;;;;;5131061;28;20184;-59
2022/05/23 09:31:17;;;;;;;2.33;1.83;;;23.20;99.90;;;;;;5131274;28;20541;-59
2022/05/23 09:33:46;;;;;;;2.75;1.98;;;23.10;99.90;;;;;;5131449;28;20259;-59
2022/05/23 09:36:30;;;;;;;2.17;1.58;;;23.20;99.90;;;;;;5130647;27;20604;-59
2022/05/23 09:38:59;;;;;;;2.78;2.25;;;22.90;99.90;;;;;;5131300;27;20637;-60
2022/05/23 09:47:44;;;;;;;2.22;1.95;;;22.50;99.90;;;;;;5131014;28;20169;-59
2022/05/23 09:49:52;;;;;;;2.53;1.58;;;22.00;99.90;;;;;;5130802;27;20341;-59
2022/05/23 09:52:34;;;;;;;3.25;2.13;;;22.00;99.90;;;;;;5130742;28;20188;-59
2022/05/23 09:55:06;;;;;;;2.42;1.80;;;22.00;99.90;;;;;;5130723;28;20675;-59
2022/05/23 09:57:39;;;;;;;2.55;2.00;;;22.00;99.90;;;;;;5130384;27;20164;-58
2022/05/23 10:00:07;;;;;;;4.03;2.50;;;22.00;99.90;;;;;;5130712;28;20207;-56
2022/05/23 10:02:35;;;;;;;3.13;2.50;;;22.00;99.90;;;;;;5130614;28;20165;-57
2022/05/23 10:05:03;;;;;;;3.42;2.42;;;22.00;99.90;;;;;;5130601;28;20176;-57
2022/05/23 10:07:35;;;;;;;2.35;1.92;;;22.10;99.90;;;;;;5130215;28;20213;-56
2022/05/23 10:10:05;;;;;;;3.95;1.75;;;22.00;99.90;;;;;;5130404;28;20169;-56
2022/05/23 10:12:32;;;;;;;2.25;2.05;;;22.00;99.90;;;;;;5130501;28;20175;-56
2022/05/23 10:15:17;;;;;;;1.63;1.40;;;22.00;99.90;;;;;;5130462;28;20173;-57
2022/05/23 10:17:43;;;;;;;1.95;1.60;;;22.00;99.90;;;;;;5123782;28;20157;-58
2022/05/23 10:20:40;;;;;;;1.70;1.60;;;21.90;99.90;;;;;;5116295;28;20169;-57
2022/05/23 10:23:21;;;;;;;2.20;2.00;;;21.70;99.90;;;;;;5116612;28;20170;-57
2022/05/23 10:25:58;;;;;;;2.38;1.73;;;21.50;99.90;;;;;;5116447;28;20193;-56
2022/05/23 10:28:40;;;;;;;2.25;1.88;;;21.40;99.90;;;;;;5116474;28;20181;-57
2022/05/23 10:31:21;;;;;;;3.00;1.60;;;21.30;99.90;;;;;;5116590;28;20165;-57
2022/05/23 10:33:55;;;;;;;2.10;1.90;;;21.20;99.90;;;;;;5115334;28;20173;-57
2022/05/23 10:36:24;;;;;;;2.15;1.90;;;21.10;99.90;;;;;;5116267;28;20182;-57
2022/05/23 10:42:19;;;;;;;2.15;1.83;;;21.10;99.90;;;;;;5116483;28;20212;-58
2022/05/23 10:44:53;;;;;;;2.97;1.90;;;21.10;99.90;;;;;;5116089;28;20169;-57
2022/05/23 10:47:51;;;;;;;1.58;1.48;;;20.90;99.90;;;;;;5116070;28;20249;-57
2022/05/23 10:50:41;;;;;;;1.88;1.67;;;20.80;99.90;;;;;;5116219;28;20170;-56
2022/05/23 10:53:12;;;;;;;1.73;1.50;;;20.80;99.90;;;;;;5116029;28;20219;-57
2022/05/23 10:55:58;;;;;;;1.98;1.63;;;20.90;99.90;;;;;;5115825;28;20216;-57
2022/05/23 10:58:43;;;;;;;1.38;1.10;;;21.00;99.90;;;;;;5116319;28;20522;-57
2022/05/23 11:01:36;;;;;;;1.83;1.33;;;21.10;99.90;;;;;;5115954;28;20165;-57
2022/05/23 11:04:10;;;;;;;1.27;1.15;;;21.00;99.90;;;;;;5115700;28;20177;-56
2022/05/23 11:06:57;;;;;;;1.95;1.60;;;21.00;99.90;;;;;;5114130;28;20224;-57
2022/05/23 11:09:42;;;;;;;1.38;1.27;;;20.90;99.90;;;;;;5115738;28;20736;-57
2022/05/23 11:12:22;;;;;;;1.42;1.25;;;20.90;99.90;;;;;;5115641;27;20642;-57
2022/05/23 11:15:16;;;;;;;2.33;1.50;;;20.90;99.90;;;;;;5115639;28;20222;-57
2022/05/23 11:18:05;;;;;;;2.17;1.80;;;20.90;99.90;;;;;;5115727;28;20187;-56
2022/05/23 11:20:36;;;;;;;2.38;2.17;;;20.90;99.90;;;;;;5106973;28;20193;-56
2022/05/23 11:23:09;;;;;;;2.67;1.80;;;21.00;99.90;;;;;;5115348;28;20177;-57
2022/05/23 11:25:39;;;;;;;2.53;2.22;;;21.10;99.90;;;;;;5115121;28;20626;-57
2022/05/23 11:34:21;;;;;;;3.33;1.80;;;21.10;99.90;;;;;;5115402;28;20230;-57
2022/05/23 11:36:57;;;;;;;3.65;2.70;;;21.00;99.90;;;;;;5114945;28;20193;-57
2022/05/23 11:39:42;;;;;;;3.72;2.17;;;20.90;99.90;;;;;;5113798;28;20632;-57
2022/05/23 11:42:11;;;;;;;2.10;1.70;;;20.80;99.90;;;;;;5115177;28;20170;-57
2022/05/23 11:44:48;;;;;;;2.50;2.03;;;20.80;99.90;;;;;;5115073;28;20165;-56
2022/05/23 11:47:21;;;;;;;2.22;1.90;;;20.60;99.90;;;;;;5114878;28;20681;-57
2022/05/23 11:49:59;;;;;;;2.47;2.10;;;20.40;99.90;;;;;;5114778;28;20184;-57
2022/05/23 11:52:31;;;;;;;2.38;1.95;;;20.20;99.90;;;;;;5115004;28;20165;-57
2022/05/23 11:54:57;;;;;;;4.35;2.85;;;19.90;99.90;;;;;;5114966;28;20165;-57
2022/05/23 11:57:38;;;;;;;3.63;3.05;;;19.70;99.90;;;;;;5114764;28;20189;-57
2022/05/23 12:00:33;;;;;;;4.85;3.42;;;19.60;99.90;;;;;;5114685;28;20170;-57
2022/05/23 12:03:17;;;;;;;5.95;3.80;;;19.50;99.90;;;;;;5112690;28;20256;-57
2022/05/23 12:05:43;;;;;;;5.00;3.70;;;19.30;99.90;;;;;;5114423;28;20554;-56
2022/05/23 12:08:31;;;;;;;4.45;3.58;;;19.20;99.90;;;;;;5114530;28;20201;-57
2022/05/23 12:10:58;;;;;;;3.83;3.42;;;19.10;99.90;;;;;;5114111;28;20621;-57
2022/05/23 12:13:38;;;;;;;4.88;4.03;;;18.80;99.90;;;;;;5114152;28;20208;-56
2022/05/23 12:16:36;;;;;;;6.70;3.80;;;18.80;99.90;;;;;;5114446;28;20525;-58
2022/05/23 12:19:28;;;;;;;4.40;3.97;;;18.80;99.90;;;;;;5114168;28;20173;-59
2022/05/23 12:22:13;;;;;;;4.57;3.15;;;18.70;99.90;;;;;;5114264;28;20580;-59
2022/05/23 12:25:08;;;;;;;4.63;3.50;;;18.70;99.90;;;;;;5114260;28;20172;-59
2022/05/23 12:27:40;;;;;;;5.85;3.13;;;18.60;99.90;;;;;;5113751;28;20196;-59
2022/05/23 12:30:17;;;;;;;4.25;3.78;;;18.60;99.90;;;;;;5114261;28;20172;-58
2022/05/23 12:32:47;;;;;;;6.93;3.60;;;18.60;99.90;;;;;;5113978;28;20178;-58
2022/05/23 12:35:14;;;;;;;4.20;3.80;;;18.50;99.90;;;;;;5113862;28;20177;-59
2022/05/23 12:38:05;;;;;;;4.60;4.20;;;18.30;99.90;;;;;;5113780;28;20230;-59
2022/05/23 12:40:45;;;;;;;5.18;4.22;;;18.30;99.90;;;;;;5113814;28;20181;-59
2022/05/23 12:43:32;;;;;;;4.80;4.15;;;18.30;99.90;;;;;;5114015;28;20241;-59
2022/05/23 12:46:21;;;;;;;5.07;4.13;;;18.10;99.90;;;;;;5113791;28;20254;-59
2022/05/23 12:49:07;;;;;;;8.05;4.55;;;18.20;99.90;;;;;;5114042;28;20173;-59
2022/05/23 12:51:59;;;;;;;7.55;5.03;;;18.40;99.90;;;;;;5113864;28;20236;-59
2022/05/23 12:54:33;;;;;;;8.68;5.97;;;18.30;99.90;;;;;;5114150;28;20165;-59
2022/05/23 12:57:23;;;;;;;7.07;5.93;;;18.20;99.90;;;;;;5113960;28;20181;-59
2022/05/23 12:59:59;;;;;;;11.77;9.85;;;18.30;99.90;;;;;;5113714;28;20238;-59
2022/05/23 13:02:45;;;;;;;15.05;11.70;;;18.40;99.90;;;;;;5113646;28;20164;-59
2022/05/23 13:05:13;;;;;;;21.27;16.05;;;18.50;99.90;;;;;;5114053;28;20181;-60
2022/05/23 13:07:57;;;;;;;20.60;17.40;;;18.50;99.90;;;;;;5113729;28;20218;-59
2022/05/23 13:10:32;;;;;;;22.40;17.50;;;18.30;99.90;;;;;;5112445;28;20641;-59
2022/05/23 13:13:11;;;;;;;24.75;18.40;;;18.00;99.90;;;;;;5113587;28;20263;-59
2022/05/23 13:15:37;;;;;;;23.13;17.95;;;18.10;99.90;;;;;;5113844;28;20183;-59
2022/05/23 13:23:36;;;;;;;21.70;17.98;;;17.80;99.90;;;;;;5112750;28;20199;-59
2022/05/23 13:26:08;;;;;;;24.08;18.25;;;17.60;99.90;;;;;;5113601;28;20258;-59
2022/05/23 13:28:50;;;;;;;23.05;17.73;;;17.60;99.90;;;;;;5113443;28;20695;-59
2022/05/23 13:31:35;;;;;;;23.70;18.50;;;17.60;99.90;;;;;;5113490;28;20161;-59
2022/05/23 13:34:03;;;;;;;25.33;18.58;;;17.50;99.90;;;;;;5113398;28;20184;-59
2022/05/23 13:36:44;;;;;;;23.75;17.58;;;17.50;99.90;;;;;;5113608;28;20656;-59
2022/05/23 13:39:14;;;;;;;23.88;17.45;;;17.50;99.90;;;;;;5113504;28;20248;-59
2022/05/23 13:41:41;;;;;;;24.63;17.75;;;17.50;99.90;;;;;;5113395;28;20169;-59
2022/05/23 13:44:07;;;;;;;23.10;18.20;;;17.40;99.90;;;;;;5113314;28;20252;-59
2022/05/23 13:46:42;;;;;;;22.80;17.40;;;17.40;99.90;;;;;;5113202;28;20204;-59
2022/05/23 13:49:13;;;;;;;24.23;18.75;;;17.50;99.90;;;;;;5113372;28;20259;-59
2022/05/23 13:51:51;;;;;;;26.02;18.90;;;17.50;99.90;;;;;;5112103;28;20637;-59
2022/05/23 13:54:35;;;;;;;23.80;18.73;;;17.60;99.90;;;;;;5116594;28;20641;-59
2022/05/23 13:57:27;;;;;;;26.75;18.98;;;17.50;99.90;;;;;;5116928;28;20540;-59
2022/05/23 13:59:59;;;;;;;22.27;16.75;;;17.40;99.90;;;;;;5117211;28;20193;-59
2022/05/23 14:02:35;;;;;;;21.83;15.68;;;17.30;99.90;;;;;;5117076;28;20168;-59
2022/05/23 14:05:03;;;;;;;20.88;15.02;;;17.20;99.90;;;;;;5117016;28;20186;-60